Accueil
METAR-TAF:

METAR-TAF

Aéroports :

Aérodrome de Payerne

Payerne, Suisse

latitude: 46-49N, longitude: 006-57E, altitude: 490 m

Observation

Le bulletin a été fait il y a 30 minutes, à 00:50 UTC
Vent 3 kt de sud, variant entre sud/sud-est et ouest/sud-ouest
Température 10°C
Humidité 87%
Pression 1015 hPa
Visibilité 10 km ou plus
Quelques nuages à une hauteur de 10000 ft
Nuages fragmentés à une hauteur de 13000 ft
Nuages fragmentés à une hauteur de 15000 ft

METAR: LSMP 210050Z AUTO 19003KT 160V240 9999NDV FEW100 BKN130 BKN150 10/08 Q1015 RMK

Heure: 03:20 (01:20 UTC)


TAF: absent

Observations et prévisions météorologiques de plus de 4000 aéroports (messages METAR et TAF).

Les stations disponibles sont représentées par des disques jaunes et rouges sur la carte.

Passer la souris dessus pour voir le nom de la station.

Cliquer dessus pour voir les observations et prévisions météorologiques.

Pour changer de carte: cliquez sur les boutons verts avec une croix noire pour zoomer, sur le bouton vert avec un tiret pour effectuer un zoom arrière, ou sur les flèches vertes pour les cartes adjacentes.


METAR-TAF: